Creedmoor, North Carolina
Current Conditions -  °F | °C
As of 1:51 AM on Tuesday 21 Oct 2014 (Local Time) from KRDU Reporting Station
Broken Clouds Broken Clouds  
Wind Chill: 57°   Ceiling: 9500
Heat Index: 57°   Visibility: 10mi
Dew Point: 50°   Wind: 3mph
Humidity: 77%   Direction: 240°WSW
Pressure: 29.97"   Gusts: NA
Location:  36.12°N, 78.69°W
Report Text: KRDU 210551Z 24003KT 10SM BKN095 BKN180 BKN250 14/10 A2997 RMK AO2 SLP145 60000 T01390100 10144 20111 56008
Loading
Personal Weather Stations






























Interactive Weather Map
Tropical Storm Tracking
New forecast layout! Learn more

10-Day Weather Forecast

Advertisements
Track Severe Weather on mobile